createdAt,value
2023-12-18T00:00:57.838Z,0.051
2023-12-18T00:02:57.783Z,0.052
2023-12-18T00:04:57.745Z,0.054
2023-12-18T00:06:58.020Z,0.054
2023-12-18T00:08:57.652Z,0.054
2023-12-18T00:10:57.718Z,0.051
2023-12-18T00:12:57.709Z,0.054
2023-12-18T00:14:57.857Z,0.054
2023-12-18T00:16:57.685Z,0.056
2023-12-18T00:18:57.799Z,0.058
2023-12-18T00:20:57.751Z,0.060
2023-12-18T00:22:57.763Z,0.060
2023-12-18T00:24:57.754Z,0.057
2023-12-18T00:26:58.096Z,0.059
2023-12-18T00:28:57.691Z,0.056
2023-12-18T00:30:57.904Z,0.057
2023-12-18T00:33:00.782Z,0.059
2023-12-18T00:34:57.731Z,0.060
2023-12-18T00:36:57.699Z,0.060
2023-12-18T00:38:57.732Z,0.059
2023-12-18T00:40:59.552Z,0.060
2023-12-18T00:42:57.719Z,0.058
2023-12-18T00:45:02.706Z,0.057
2023-12-18T00:46:57.867Z,0.056
2023-12-18T00:48:57.874Z,0.056
2023-12-18T00:50:57.737Z,0.055
2023-12-18T00:52:57.851Z,0.058
2023-12-18T00:55:02.054Z,0.055
2023-12-18T00:56:57.691Z,0.056
2023-12-18T00:58:57.772Z,0.057
2023-12-18T01:00:57.876Z,0.058
2023-12-18T01:02:58.019Z,0.060
2023-12-18T01:04:58.072Z,0.060
2023-12-18T01:07:01.424Z,0.059
2023-12-18T01:08:57.785Z,0.060
2023-12-18T01:10:57.733Z,0.062
2023-12-18T01:12:57.711Z,0.060
2023-12-18T01:15:00.305Z,0.060
2023-12-18T01:16:57.719Z,0.059
2023-12-18T01:18:58.040Z,0.059
2023-12-18T01:20:57.842Z,0.059
2023-12-18T01:23:04.066Z,0.060
2023-12-18T01:24:57.717Z,0.064
2023-12-18T01:26:57.735Z,0.060
2023-12-18T01:28:57.920Z,0.059
2023-12-18T01:30:57.873Z,0.058
2023-12-18T01:32:57.871Z,0.055
2023-12-18T01:34:57.772Z,0.053
2023-12-18T01:36:57.740Z,0.052
2023-12-18T01:38:57.784Z,0.052
2023-12-18T01:40:58.960Z,0.052
2023-12-18T01:42:57.921Z,0.052
2023-12-18T01:44:57.757Z,0.053
2023-12-18T01:46:57.863Z,0.053
2023-12-18T01:48:58.861Z,0.054
2023-12-18T01:51:00.571Z,0.056
2023-12-18T01:53:58.136Z,0.057
2023-12-18T01:55:57.858Z,0.056
2023-12-18T01:57:57.862Z,0.055
2023-12-18T01:59:57.942Z,0.052
2023-12-18T02:01:57.759Z,0.052
2023-12-18T02:03:58.346Z,0.051
2023-12-18T02:05:57.744Z,0.052
2023-12-18T02:07:58.548Z,0.053
2023-12-18T02:09:58.000Z,0.050
2023-12-18T02:11:57.702Z,0.051
2023-12-18T02:14:00.772Z,0.052
2023-12-18T02:15:57.808Z,0.055
2023-12-18T02:17:57.791Z,0.054
2023-12-18T02:20:00.227Z,0.054
2023-12-18T02:21:57.812Z,0.054
2023-12-18T02:23:58.061Z,0.053
2023-12-18T02:25:57.787Z,0.055
2023-12-18T02:27:57.752Z,0.054
2023-12-18T02:29:57.831Z,0.056
2023-12-18T02:32:00.361Z,0.056
2023-12-18T02:33:57.907Z,0.055
2023-12-18T02:36:02.718Z,0.057
2023-12-18T02:37:57.846Z,0.057
2023-12-18T02:39:58.585Z,0.056
2023-12-18T02:41:57.869Z,0.056
2023-12-18T02:43:58.000Z,0.055
2023-12-18T02:46:00.870Z,0.055
2023-12-18T02:47:58.921Z,0.055
2023-12-18T02:50:12.130Z,0.055
2023-12-18T02:51:57.709Z,0.053
2023-12-18T02:53:57.771Z,0.052
2023-12-18T02:56:00.414Z,0.053
2023-12-18T02:57:57.916Z,0.053
2023-12-18T02:59:57.773Z,0.054
2023-12-18T03:01:57.877Z,0.054
2023-12-18T03:03:58.202Z,0.056
2023-12-18T03:05:57.724Z,0.055
2023-12-18T03:07:57.788Z,0.055
2023-12-18T03:10:00.811Z,0.056
2023-12-18T03:11:58.215Z,0.055
2023-12-18T03:13:57.758Z,0.055
2023-12-18T03:15:57.837Z,0.051
2023-12-18T03:17:57.957Z,0.052
2023-12-18T03:19:57.904Z,0.052
2023-12-18T03:21:57.872Z,0.050
2023-12-18T03:24:03.521Z,0.050
2023-12-18T03:26:00.806Z,0.050
2023-12-18T03:28:01.266Z,0.051
2023-12-18T03:29:57.781Z,0.050
2023-12-18T03:31:57.799Z,0.050
2023-12-18T03:33:57.887Z,0.051
2023-12-18T03:35:57.782Z,0.052
2023-12-18T03:37:57.833Z,0.053
2023-12-18T03:39:57.785Z,0.052
2023-12-18T03:41:58.087Z,0.052
2023-12-18T03:43:58.741Z,0.053
2023-12-18T03:46:00.518Z,0.053
2023-12-18T03:47:58.441Z,0.053
2023-12-18T03:49:57.987Z,0.056
2023-12-18T03:51:58.789Z,0.059
2023-12-18T03:53:58.878Z,0.060
2023-12-18T03:55:57.863Z,0.059
2023-12-18T03:57:59.348Z,0.061
2023-12-18T03:59:57.747Z,0.062
2023-12-18T04:01:57.802Z,0.063
2023-12-18T04:04:01.352Z,0.062
2023-12-18T04:06:00.517Z,0.061
2023-12-18T04:08:01.315Z,0.060
2023-12-18T04:09:57.819Z,0.060
2023-12-18T04:12:01.289Z,0.061
2023-12-18T04:13:57.965Z,0.060
2023-12-18T04:16:00.680Z,0.061
2023-12-18T04:18:10.293Z,0.061
2023-12-18T04:19:57.896Z,0.061
2023-12-18T04:21:57.950Z,0.063
2023-12-18T04:23:57.823Z,0.065
2023-12-18T04:25:57.781Z,0.065
2023-12-18T04:27:57.935Z,0.065
2023-12-18T04:29:57.777Z,0.066
2023-12-18T04:32:02.644Z,0.065
2023-12-18T04:33:57.874Z,0.064
2023-12-18T04:36:00.855Z,0.065
2023-12-18T04:37:57.899Z,0.065
2023-12-18T04:39:57.808Z,0.066
2023-12-18T04:41:57.827Z,0.068
2023-12-18T04:43:58.141Z,0.068
2023-12-18T04:45:57.818Z,0.066
2023-12-18T04:48:01.338Z,0.065
2023-12-18T04:49:57.940Z,0.062
2023-12-18T04:51:58.670Z,0.058
2023-12-18T04:53:57.802Z,0.059
2023-12-18T04:55:58.326Z,0.058
2023-12-18T04:57:57.890Z,0.055
2023-12-18T05:00:02.058Z,0.053
2023-12-18T05:01:57.921Z,0.050
2023-12-18T05:03:57.919Z,0.052
2023-12-18T05:05:57.834Z,0.054
2023-12-18T05:07:57.949Z,0.054
2023-12-18T05:09:57.848Z,0.053
2023-12-18T05:11:59.081Z,0.053
2023-12-18T05:13:57.950Z,0.054
2023-12-18T05:15:57.975Z,0.053
2023-12-18T05:17:57.894Z,0.052
2023-12-18T05:19:57.965Z,0.050
2023-12-18T05:21:58.087Z,0.052
2023-12-18T05:23:58.167Z,0.049
2023-12-18T05:25:57.892Z,0.049
2023-12-18T05:27:57.845Z,0.049
2023-12-18T05:29:58.287Z,0.048
2023-12-18T05:34:11.719Z,0.051
2023-12-18T05:36:14.181Z,0.050
2023-12-18T05:38:11.321Z,0.051
2023-12-18T05:40:11.031Z,0.050
2023-12-18T05:42:11.292Z,0.048
2023-12-18T05:44:11.127Z,0.049
2023-12-18T05:46:11.051Z,0.048
2023-12-18T05:48:11.379Z,0.050
2023-12-18T05:50:10.992Z,0.050
2023-12-18T05:52:10.965Z,0.051
2023-12-18T05:54:11.159Z,0.049
2023-12-18T05:56:11.013Z,0.051
2023-12-18T05:58:15.696Z,0.054
2023-12-18T06:00:14.242Z,0.055
2023-12-18T06:02:11.090Z,0.056
2023-12-18T06:04:11.745Z,0.053
2023-12-18T06:06:11.091Z,0.052
2023-12-18T06:08:11.100Z,0.052
2023-12-18T06:10:11.012Z,0.053
2023-12-18T06:12:11.069Z,0.053
2023-12-18T06:14:11.010Z,0.051
2023-12-18T06:16:11.075Z,0.052
2023-12-18T06:18:11.779Z,0.053
2023-12-18T06:21:11.102Z,0.051
2023-12-18T06:23:11.069Z,0.050
2023-12-18T06:25:11.259Z,0.051
2023-12-18T06:26:16.138Z,0.050
2023-12-18T06:28:16.027Z,0.050
2023-12-18T06:31:11.335Z,0.049
2023-12-18T06:33:11.240Z,0.048
2023-12-18T06:35:11.086Z,0.050
2023-12-18T06:37:11.335Z,0.049
2023-12-18T06:39:11.253Z,0.050
2023-12-18T06:41:11.228Z,0.051
2023-12-18T06:43:11.077Z,0.050
2023-12-18T06:45:11.043Z,0.053
2023-12-18T06:47:11.013Z,0.053
2023-12-18T06:49:15.946Z,0.053
2023-12-18T06:51:11.129Z,0.054
2023-12-18T06:53:11.096Z,0.056
2023-12-18T06:55:11.074Z,0.056
2023-12-18T06:57:11.160Z,0.056
2023-12-18T06:59:13.446Z,0.055
2023-12-18T07:01:11.324Z,0.055
2023-12-18T07:03:11.344Z,0.055
2023-12-18T07:05:11.157Z,0.055
2023-12-18T07:07:14.764Z,0.054
2023-12-18T07:09:13.864Z,0.055
2023-12-18T07:11:12.609Z,0.053
2023-12-18T07:13:11.755Z,0.052
2023-12-18T07:15:11.138Z,0.055
2023-12-18T07:17:11.248Z,0.055
2023-12-18T07:19:13.564Z,0.055
2023-12-18T07:21:12.731Z,0.055
2023-12-18T07:23:12.447Z,0.055
2023-12-18T07:25:11.786Z,0.056
2023-12-18T07:27:12.556Z,0.056
2023-12-18T07:29:12.427Z,0.057
2023-12-18T07:31:13.850Z,0.057
2023-12-18T07:33:11.256Z,0.057
2023-12-18T07:35:13.244Z,0.056
2023-12-18T07:37:11.118Z,0.057
2023-12-18T07:39:11.258Z,0.057
2023-12-18T07:41:13.619Z,0.057
2023-12-18T07:43:12.738Z,0.056
2023-12-18T07:45:18.159Z,0.054
2023-12-18T07:47:12.677Z,0.056
2023-12-18T07:49:11.827Z,0.053
2023-12-18T07:51:11.502Z,0.054
2023-12-18T07:53:13.107Z,0.052
2023-12-18T07:55:11.438Z,0.052
2023-12-18T07:57:14.616Z,0.052
2023-12-18T07:59:18.679Z,0.052
2023-12-18T08:01:12.919Z,0.053
2023-12-18T08:03:15.506Z,0.054
2023-12-18T08:05:11.214Z,0.054
2023-12-18T08:07:13.842Z,0.054
2023-12-18T08:09:11.186Z,0.052
2023-12-18T08:11:11.187Z,0.053
2023-12-18T08:13:11.418Z,0.055
2023-12-18T08:15:11.379Z,0.054
2023-12-18T08:17:11.892Z,0.054
2023-12-18T08:19:11.402Z,0.055
2023-12-18T08:21:11.194Z,0.054
2023-12-18T08:23:11.341Z,0.055
2023-12-18T08:25:11.248Z,0.054
2023-12-18T08:27:11.503Z,0.053
2023-12-18T08:29:13.834Z,0.053
2023-12-18T08:31:11.185Z,0.054
2023-12-18T08:33:13.998Z,0.055
2023-12-18T08:35:12.319Z,0.054
2023-12-18T08:37:14.151Z,0.053
2023-12-18T08:39:12.362Z,0.051
2023-12-18T08:41:17.172Z,0.050
2023-12-18T08:43:11.341Z,0.052
2023-12-18T08:45:18.622Z,0.052
2023-12-18T08:47:11.484Z,0.050
2023-12-18T08:49:11.346Z,0.050
2023-12-18T08:51:11.245Z,0.047
2023-12-18T08:53:11.256Z,0.048
2023-12-18T08:55:11.319Z,0.048
2023-12-18T08:57:11.177Z,0.048
2023-12-18T08:59:11.189Z,0.047
2023-12-18T09:01:11.250Z,0.048
2023-12-18T09:03:12.754Z,0.046
2023-12-18T09:05:11.278Z,0.046
2023-12-18T09:07:11.284Z,0.049
2023-12-18T09:09:14.163Z,0.053
2023-12-18T09:11:11.584Z,0.053
2023-12-18T09:13:11.252Z,0.051
2023-12-18T09:15:11.176Z,0.048
2023-12-18T09:17:11.261Z,0.049
2023-12-18T09:19:11.582Z,0.048
2023-12-18T09:21:11.403Z,0.048
2023-12-18T09:23:11.279Z,0.050
2023-12-18T09:25:15.003Z,0.050
2023-12-18T09:27:11.292Z,0.052
2023-12-18T09:29:13.809Z,0.052
2023-12-18T09:31:12.608Z,0.052
2023-12-18T09:33:11.462Z,0.051
2023-12-18T09:35:12.357Z,0.052
2023-12-18T09:37:11.111Z,0.053
2023-12-18T09:39:11.292Z,0.055
2023-12-18T09:41:11.321Z,0.056
2023-12-18T09:43:12.574Z,0.053
2023-12-18T09:45:11.215Z,0.053
2023-12-18T09:47:11.158Z,0.054
2023-12-18T09:49:12.322Z,0.055
2023-12-18T09:51:13.526Z,0.057
2023-12-18T09:54:11.312Z,0.059
2023-12-18T09:56:11.284Z,0.057
2023-12-18T09:57:17.449Z,0.057
2023-12-18T10:00:11.271Z,0.059
2023-12-18T10:02:13.018Z,0.061
2023-12-18T10:04:11.475Z,0.062
2023-12-18T10:06:18.673Z,0.062
2023-12-18T10:08:13.639Z,0.062
2023-12-18T10:09:16.188Z,0.058
2023-12-18T10:12:11.185Z,0.060
2023-12-18T10:14:12.713Z,0.063
2023-12-18T10:16:13.497Z,0.063
2023-12-18T10:18:13.748Z,0.063
2023-12-18T10:20:12.370Z,0.063
2023-12-18T10:22:11.145Z,0.063
2023-12-18T10:24:11.294Z,0.062
2023-12-18T10:26:11.192Z,0.063
2023-12-18T10:28:11.492Z,0.060
2023-12-18T10:30:11.493Z,0.060
2023-12-18T10:32:11.159Z,0.059
2023-12-18T10:34:11.242Z,0.058
2023-12-18T10:36:11.160Z,0.057
2023-12-18T10:38:11.188Z,0.057
2023-12-18T10:40:11.197Z,0.055
2023-12-18T10:42:11.557Z,0.056
2023-12-18T10:44:11.135Z,0.058
2023-12-18T10:46:11.195Z,0.058
2023-12-18T10:48:11.268Z,0.058
2023-12-18T10:50:13.880Z,0.057
2023-12-18T10:52:11.476Z,0.059
2023-12-18T10:54:11.226Z,0.058
2023-12-18T10:56:13.450Z,0.059
2023-12-18T10:58:11.967Z,0.060
2023-12-18T11:00:11.460Z,0.058
2023-12-18T11:02:11.489Z,0.055
2023-12-18T11:04:11.312Z,0.053
2023-12-18T11:06:11.363Z,0.053
2023-12-18T11:08:11.210Z,0.053
2023-12-18T11:10:13.240Z,0.056
2023-12-18T11:12:11.206Z,0.055
2023-12-18T11:14:11.286Z,0.055
2023-12-18T11:16:14.703Z,0.055
2023-12-18T11:18:14.162Z,0.056
2023-12-18T11:20:13.058Z,0.055
2023-12-18T11:22:11.246Z,0.053
2023-12-18T11:24:13.682Z,0.055
2023-12-18T11:26:11.205Z,0.057
2023-12-18T11:28:11.260Z,0.058
2023-12-18T11:30:14.137Z,0.059
2023-12-18T11:32:13.558Z,0.061
2023-12-18T11:36:22.997Z,0.062
2023-12-18T11:38:24.161Z,0.063
2023-12-18T11:40:22.826Z,0.065
2023-12-18T11:42:23.442Z,0.066
2023-12-18T11:44:22.989Z,0.064
2023-12-18T11:46:24.361Z,0.065
2023-12-18T11:48:22.872Z,0.066
2023-12-18T11:50:22.804Z,0.068
2023-12-18T11:52:22.989Z,0.066
2023-12-18T11:54:23.189Z,0.067
2023-12-18T11:56:22.994Z,0.068
2023-12-18T11:58:22.810Z,0.068
2023-12-18T12:00:37.267Z,0.070
2023-12-18T12:02:25.264Z,0.071
2023-12-18T12:04:37.229Z,0.074
2023-12-18T12:06:30.210Z,0.076
2023-12-18T12:08:23.153Z,0.076
2023-12-18T12:10:22.741Z,0.073
2023-12-18T12:12:23.405Z,0.073
2023-12-18T12:14:23.708Z,0.072
2023-12-18T12:16:23.456Z,0.071
2023-12-18T12:18:23.141Z,0.072
2023-12-18T12:20:22.840Z,0.074
2023-12-18T12:22:24.878Z,0.076
2023-12-18T12:24:25.861Z,0.075
2023-12-18T12:26:22.838Z,0.072
2023-12-18T12:28:22.712Z,0.072
2023-12-18T12:30:22.904Z,0.069
2023-12-18T12:32:23.598Z,0.068
2023-12-18T12:34:27.752Z,0.069
2023-12-18T12:36:23.082Z,0.069
2023-12-18T12:38:22.732Z,0.069
2023-12-18T12:40:22.817Z,0.068
2023-12-18T12:42:23.333Z,0.066
2023-12-18T12:44:22.778Z,0.069
2023-12-18T12:46:26.941Z,0.068
2023-12-18T12:48:22.829Z,0.069
2023-12-18T12:50:22.802Z,0.068
2023-12-18T12:52:22.964Z,0.068
2023-12-18T12:54:23.032Z,0.069
2023-12-18T12:56:22.790Z,0.067
2023-12-18T12:58:22.884Z,0.068
2023-12-18T13:00:22.867Z,0.068
2023-12-18T13:02:23.364Z,0.067
2023-12-18T13:04:24.713Z,0.065
2023-12-18T13:06:22.814Z,0.062
2023-12-18T13:08:22.767Z,0.062
2023-12-18T13:10:22.775Z,0.062
2023-12-18T13:12:23.537Z,0.060
2023-12-18T13:14:22.831Z,0.061
2023-12-18T13:16:23.582Z,0.061
2023-12-18T13:18:22.928Z,0.060
2023-12-18T13:22:23.391Z,0.060
2023-12-18T13:24:22.864Z,0.060
2023-12-18T13:26:23.817Z,0.060
2023-12-18T13:28:22.844Z,0.062
2023-12-18T13:30:23.636Z,0.065
2023-12-18T13:32:24.397Z,0.068
2023-12-18T13:34:22.924Z,0.065
2023-12-18T13:36:22.928Z,0.065
2023-12-18T13:38:22.894Z,0.063
2023-12-18T13:40:27.640Z,0.062
2023-12-18T13:42:26.375Z,0.063
2023-12-18T13:44:22.824Z,0.062
2023-12-18T13:46:22.774Z,0.062
2023-12-18T13:48:22.920Z,0.061
2023-12-18T13:50:24.040Z,0.061
2023-12-18T13:52:22.858Z,0.058
2023-12-18T13:54:27.834Z,0.057
2023-12-18T13:56:22.787Z,0.057
2023-12-18T13:58:22.824Z,0.055
2023-12-18T14:00:24.871Z,0.053
2023-12-18T14:02:22.796Z,0.054
2023-12-18T14:04:22.928Z,0.055
2023-12-18T14:06:22.828Z,0.055
2023-12-18T14:08:25.518Z,0.056
2023-12-18T14:10:22.884Z,0.055
2023-12-18T14:12:25.437Z,0.057
2023-12-18T14:14:22.845Z,0.054
2023-12-18T14:16:22.876Z,0.053
2023-12-18T14:18:23.055Z,0.054
2023-12-18T14:20:25.485Z,0.052
2023-12-18T14:22:23.336Z,0.053
2023-12-18T14:24:26.102Z,0.053
2023-12-18T14:26:22.919Z,0.053
2023-12-18T14:29:23.280Z,0.050
2023-12-18T14:30:25.755Z,0.050
2023-12-18T14:33:22.993Z,0.047
2023-12-18T14:35:22.990Z,0.051
2023-12-18T14:37:22.955Z,0.053
2023-12-18T14:39:25.743Z,0.054
2023-12-18T14:41:26.572Z,0.052
2023-12-18T14:43:22.888Z,0.052
2023-12-18T14:45:25.888Z,0.051
2023-12-18T14:47:25.591Z,0.051
2023-12-18T14:49:27.354Z,0.051
2023-12-18T14:51:27.929Z,0.052
2023-12-18T14:52:31.564Z,0.052
2023-12-18T14:55:24.918Z,0.054
2023-12-18T14:57:22.909Z,0.054
2023-12-18T14:59:22.951Z,0.054
2023-12-18T15:01:23.017Z,0.053
2023-12-18T15:03:23.294Z,0.055
2023-12-18T15:05:22.946Z,0.055
2023-12-18T15:07:22.953Z,0.054
2023-12-18T15:09:23.166Z,0.054
2023-12-18T15:11:23.012Z,0.055
2023-12-18T15:13:24.536Z,0.055
2023-12-18T15:15:23.175Z,0.054
2023-12-18T15:17:22.952Z,0.053
2023-12-18T15:19:23.056Z,0.054
2023-12-18T15:21:22.955Z,0.053
2023-12-18T15:23:22.969Z,0.052
2023-12-18T15:25:22.918Z,0.051
2023-12-18T15:27:22.956Z,0.051
2023-12-18T15:29:36.449Z,0.050
2023-12-18T15:31:23.137Z,0.050
2023-12-18T15:33:34.910Z,0.050
2023-12-18T15:35:22.894Z,0.046
2023-12-18T15:37:23.061Z,0.046
2023-12-18T15:39:24.823Z,0.047
2023-12-18T15:41:22.896Z,0.047
2023-12-18T15:43:25.496Z,0.047
2023-12-18T15:45:22.872Z,0.047
2023-12-18T15:47:23.465Z,0.049
2023-12-18T15:49:23.180Z,0.049
2023-12-18T15:51:23.054Z,0.047
2023-12-18T15:53:22.950Z,0.047
2023-12-18T15:55:22.893Z,0.045
2023-12-18T15:57:23.060Z,0.045
2023-12-18T15:59:23.037Z,0.046
2023-12-18T16:01:22.999Z,0.046
2023-12-18T16:03:23.000Z,0.042
2023-12-18T16:05:22.964Z,0.042
2023-12-18T16:07:23.565Z,0.045
2023-12-18T16:09:22.978Z,0.047
2023-12-18T16:11:22.935Z,0.046
2023-12-18T16:13:27.844Z,0.046
2023-12-18T16:15:23.108Z,0.047
2023-12-18T16:17:23.645Z,0.049
2023-12-18T16:19:23.047Z,0.047
2023-12-18T16:21:22.945Z,0.047
2023-12-18T16:23:22.923Z,0.048
2023-12-18T16:25:23.149Z,0.048
2023-12-18T16:27:24.295Z,0.049
2023-12-18T16:29:22.881Z,0.049
2023-12-18T16:31:23.067Z,0.051
2023-12-18T16:33:22.992Z,0.050
2023-12-18T16:35:23.434Z,0.053
2023-12-18T16:37:25.772Z,0.052
2023-12-18T16:39:22.940Z,0.052
2023-12-18T16:41:22.892Z,0.054
2023-12-18T16:43:22.927Z,0.055
2023-12-18T16:45:26.799Z,0.056
2023-12-18T16:47:23.804Z,0.057
2023-12-18T16:49:27.411Z,0.058
2023-12-18T16:51:23.046Z,0.058
2023-12-18T16:53:22.943Z,0.060
2023-12-18T16:55:27.855Z,0.063
2023-12-18T16:57:23.819Z,0.065
2023-12-18T16:59:23.185Z,0.065
2023-12-18T17:01:23.361Z,0.065
2023-12-18T17:03:23.029Z,0.068
2023-12-18T17:05:23.007Z,0.069
2023-12-18T17:07:23.789Z,0.069
2023-12-18T17:09:22.963Z,0.067
2023-12-18T17:11:22.944Z,0.069
2023-12-18T17:13:23.353Z,0.068
2023-12-18T17:15:23.146Z,0.068
2023-12-18T17:17:24.675Z,0.067
2023-12-18T17:19:23.034Z,0.069
2023-12-18T17:21:23.487Z,0.070
2023-12-18T17:23:23.024Z,0.071
2023-12-18T17:25:25.119Z,0.072
2023-12-18T17:27:23.059Z,0.072
2023-12-18T17:29:23.086Z,0.072
2023-12-18T17:31:23.110Z,0.069
2023-12-18T17:33:27.913Z,0.071
2023-12-18T17:35:29.064Z,0.069
2023-12-18T17:37:22.993Z,0.069
2023-12-18T17:39:22.912Z,0.068
2023-12-18T17:41:23.001Z,0.066
2023-12-18T17:43:22.954Z,0.066
2023-12-18T17:45:29.892Z,0.066
2023-12-18T17:47:23.102Z,0.066
2023-12-18T17:49:25.752Z,0.064
2023-12-18T17:51:23.137Z,0.066
2023-12-18T17:53:28.195Z,0.065
2023-12-18T17:57:32.345Z,0.064
2023-12-18T17:59:33.243Z,0.064
2023-12-18T18:01:32.293Z,0.065
2023-12-18T18:03:37.422Z,0.064
2023-12-18T18:05:41.220Z,0.062
2023-12-18T18:07:34.852Z,0.062
2023-12-18T18:09:32.397Z,0.063
2023-12-18T18:11:32.263Z,0.064
2023-12-18T18:13:32.303Z,0.064
2023-12-18T18:15:32.342Z,0.066
2023-12-18T18:17:32.279Z,0.066
2023-12-18T18:19:32.490Z,0.066
2023-12-18T18:21:34.901Z,0.067
2023-12-18T18:23:39.682Z,0.066
2023-12-18T18:25:32.421Z,0.065
2023-12-18T18:27:35.094Z,0.064
2023-12-18T18:29:35.330Z,0.063
2023-12-18T18:31:32.503Z,0.066
2023-12-18T18:33:38.271Z,0.064
2023-12-18T18:35:34.001Z,0.065
2023-12-18T18:37:35.142Z,0.065
2023-12-18T18:39:33.299Z,0.066
2023-12-18T18:42:32.320Z,0.066
2023-12-18T18:44:32.318Z,0.064
2023-12-18T18:46:32.384Z,0.064
2023-12-18T18:48:32.384Z,0.063
2023-12-18T18:50:32.274Z,0.063
2023-12-18T18:52:32.300Z,0.061
2023-12-18T18:54:33.969Z,0.058
2023-12-18T18:56:44.814Z,0.058
2023-12-18T18:58:35.109Z,0.058
2023-12-18T19:00:32.467Z,0.055
2023-12-18T19:02:32.271Z,0.056
2023-12-18T19:04:34.313Z,0.056
2023-12-18T19:06:37.469Z,0.056
2023-12-18T19:08:32.308Z,0.055
2023-12-18T19:10:32.302Z,0.054
2023-12-18T19:12:32.328Z,0.054
2023-12-18T19:14:32.464Z,0.056
2023-12-18T19:16:35.204Z,0.053
2023-12-18T19:18:32.451Z,0.053
2023-12-18T19:20:35.117Z,0.050
2023-12-18T19:22:32.437Z,0.052
2023-12-18T19:24:32.512Z,0.056
2023-12-18T19:26:32.613Z,0.057
2023-12-18T19:28:32.408Z,0.057
2023-12-18T19:30:32.439Z,0.058
2023-12-18T19:32:32.370Z,0.058
2023-12-18T19:34:32.556Z,0.061
2023-12-18T19:36:32.389Z,0.059
2023-12-18T19:38:35.037Z,0.058
2023-12-18T19:40:35.540Z,0.058
2023-12-18T19:42:32.313Z,0.059
2023-12-18T19:44:33.395Z,0.059
2023-12-18T19:46:32.978Z,0.059
2023-12-18T19:48:32.489Z,0.061
2023-12-18T19:50:32.486Z,0.061
2023-12-18T19:52:33.198Z,0.062
2023-12-18T19:54:32.362Z,0.063
2023-12-18T19:56:35.623Z,0.064
2023-12-18T19:58:32.353Z,0.065
2023-12-18T20:00:37.400Z,0.066
2023-12-18T20:02:33.642Z,0.067
2023-12-18T20:04:32.392Z,0.065
2023-12-18T20:06:35.065Z,0.064
2023-12-18T20:08:32.331Z,0.067
2023-12-18T20:10:32.455Z,0.066
2023-12-18T20:12:32.302Z,0.065
2023-12-18T20:14:36.665Z,0.066
2023-12-18T20:16:38.344Z,0.066
2023-12-18T20:18:32.505Z,0.067
2023-12-18T20:20:32.413Z,0.068
2023-12-18T20:22:32.384Z,0.067
2023-12-18T20:24:37.585Z,0.064
2023-12-18T20:26:32.370Z,0.063
2023-12-18T20:28:32.466Z,0.065
2023-12-18T20:30:34.654Z,0.064
2023-12-18T20:32:32.313Z,0.062
2023-12-18T20:34:32.491Z,0.060
2023-12-18T20:36:32.455Z,0.061
2023-12-18T20:38:32.284Z,0.062
2023-12-18T20:40:32.457Z,0.061
2023-12-18T20:42:46.858Z,0.061
2023-12-18T20:44:32.529Z,0.061
2023-12-18T20:46:32.437Z,0.062
2023-12-18T20:48:32.477Z,0.063
2023-12-18T20:50:32.338Z,0.063
2023-12-18T20:52:32.339Z,0.064
2023-12-18T20:54:32.528Z,0.062
2023-12-18T20:56:32.302Z,0.060
2023-12-18T20:58:32.382Z,0.060
2023-12-18T21:00:33.110Z,0.060
2023-12-18T21:02:32.321Z,0.059
2023-12-18T21:04:32.459Z,0.060
2023-12-18T21:06:32.392Z,0.061
2023-12-18T21:08:32.322Z,0.059
2023-12-18T21:10:32.363Z,0.060
2023-12-18T21:12:34.519Z,0.062
2023-12-18T21:14:35.423Z,0.060
2023-12-18T21:16:33.284Z,0.060
2023-12-18T21:18:46.749Z,0.059
2023-12-18T21:20:32.350Z,0.060
2023-12-18T21:22:32.532Z,0.060
2023-12-18T21:24:32.513Z,0.059
2023-12-18T21:26:32.392Z,0.060
2023-12-18T21:28:32.385Z,0.057
2023-12-18T21:30:32.625Z,0.057
2023-12-18T21:32:32.469Z,0.058
2023-12-18T21:34:32.493Z,0.060
2023-12-18T21:36:32.527Z,0.060
2023-12-18T21:38:32.374Z,0.060
2023-12-18T21:40:32.470Z,0.058
2023-12-18T21:42:32.484Z,0.058
2023-12-18T21:44:32.369Z,0.058
2023-12-18T21:46:32.399Z,0.059
2023-12-18T21:48:32.498Z,0.059
2023-12-18T21:50:32.435Z,0.058
2023-12-18T21:52:32.457Z,0.058
2023-12-18T21:54:32.483Z,0.059
2023-12-18T21:56:34.330Z,0.060
2023-12-18T21:58:32.529Z,0.058
2023-12-18T22:00:32.346Z,0.057
2023-12-18T22:02:33.497Z,0.056
2023-12-18T22:04:32.700Z,0.056
2023-12-18T22:06:32.588Z,0.056
2023-12-18T22:08:32.591Z,0.057
2023-12-18T22:10:32.685Z,0.056
2023-12-18T22:12:32.849Z,0.055
2023-12-18T22:14:32.500Z,0.055
2023-12-18T22:17:32.711Z,0.055
2023-12-18T22:18:35.238Z,0.055
2023-12-18T22:21:32.678Z,0.057
2023-12-18T22:23:32.553Z,0.056
2023-12-18T22:25:33.713Z,0.056
2023-12-18T22:27:32.554Z,0.058
2023-12-18T22:28:37.407Z,0.060
2023-12-18T22:30:39.893Z,0.060
2023-12-18T22:33:32.620Z,0.060
2023-12-18T22:35:32.384Z,0.061
2023-12-18T22:37:32.546Z,0.060
2023-12-18T22:39:32.647Z,0.061
2023-12-18T22:41:32.355Z,0.061
2023-12-18T22:43:32.401Z,0.060
2023-12-18T22:45:32.422Z,0.059
2023-12-18T22:47:37.393Z,0.058
2023-12-18T22:49:35.400Z,0.057
2023-12-18T22:51:32.545Z,0.058
2023-12-18T22:53:32.388Z,0.058
2023-12-18T22:55:32.481Z,0.057
2023-12-18T22:57:32.594Z,0.057
2023-12-18T22:59:32.479Z,0.059
2023-12-18T23:01:32.543Z,0.059
2023-12-18T23:03:32.872Z,0.061
2023-12-18T23:05:33.974Z,0.061
2023-12-18T23:07:32.387Z,0.062
2023-12-18T23:09:32.479Z,0.061
2023-12-18T23:11:33.102Z,0.058
2023-12-18T23:13:32.365Z,0.057
2023-12-18T23:15:32.519Z,0.059
2023-12-18T23:17:32.540Z,0.059
2023-12-18T23:19:33.938Z,0.059
2023-12-18T23:21:32.618Z,0.059
2023-12-18T23:23:32.451Z,0.060
2023-12-18T23:25:32.422Z,0.061
2023-12-18T23:27:34.328Z,0.060
2023-12-18T23:29:32.398Z,0.060
2023-12-18T23:31:32.663Z,0.059
2023-12-18T23:33:35.175Z,0.058
2023-12-18T23:35:32.604Z,0.059
2023-12-18T23:37:35.908Z,0.060
2023-12-18T23:39:32.550Z,0.060
2023-12-18T23:41:32.461Z,0.059
2023-12-18T23:43:32.539Z,0.061
2023-12-18T23:45:32.638Z,0.060
2023-12-18T23:47:32.556Z,0.059
2023-12-18T23:49:32.635Z,0.059
2023-12-18T23:51:32.645Z,0.059
2023-12-18T23:53:32.412Z,0.059
2023-12-18T23:55:33.452Z,0.059
2023-12-18T23:57:32.489Z,0.060
2023-12-18T23:59:32.553Z,0.058
